sensor_id;sensor_type;location;lat;lon;timestamp;pressure;altitude;pressure_sealevel;temperature;humidity
49341;BME280;35209;51.050;13.678;2024-03-23T00:55:18;150959.88;;;9.09;100.00
49341;BME280;35209;51.050;13.678;2024-03-23T01:00:18;150908.28;;;8.89;100.00
49341;BME280;35209;51.050;13.678;2024-03-23T01:05:19;150994.69;;;9.23;100.00
49341;BME280;35209;51.050;13.678;2024-03-23T01:10:20;151030.81;;;9.38;100.00
49341;BME280;35209;51.050;13.678;2024-03-23T01:15:21;151041.13;;;9.42;100.00
49341;BME280;35209;51.050;13.678;2024-03-23T01:20:22;150891.53;;;8.82;100.00
49341;BME280;35209;51.050;13.678;2024-03-23T01:25:22;150842.50;;;8.63;100.00
49341;BME280;35209;51.050;13.678;2024-03-23T01:30:23;150895.38;;;8.84;100.00
49341;BME280;35209;51.050;13.678;2024-03-23T01:35:24;150839.94;;;8.62;100.00
49341;BME280;35209;51.050;13.678;2024-03-23T01:40:25;150830.91;;;8.58;100.00
49341;BME280;35209;51.050;13.678;2024-03-23T01:45:28;150787.13;;;8.41;100.00
49341;BME280;35209;51.050;13.678;2024-03-23T01:50:29;150789.69;;;8.42;100.00
49341;BME280;35209;51.050;13.678;2024-03-23T01:55:33;150784.50;;;8.40;100.00
49341;BME280;35209;51.050;13.678;2024-03-23T02:00:34;150793.53;;;8.44;100.00
49341;BME280;35209;51.050;13.678;2024-03-23T02:05:35;150725.19;;;8.17;100.00
49341;BME280;35209;51.050;13.678;2024-03-23T02:10:36;150807.72;;;8.49;100.00
49341;BME280;35209;51.050;13.678;2024-03-23T02:15:39;150757.41;;;8.29;100.00
49341;BME280;35209;51.050;13.678;2024-03-23T02:20:40;150748.38;;;8.26;100.00
49341;BME280;35209;51.050;13.678;2024-03-23T02:25:40;150811.59;;;8.51;100.00
49341;BME280;35209;51.050;13.678;2024-03-23T02:30:42;150800.00;;;8.46;100.00
49341;BME280;35209;51.050;13.678;2024-03-23T02:35:44;150774.16;;;8.36;100.00
49341;BME280;35209;51.050;13.678;2024-03-23T02:40:45;150858.00;;;8.69;100.00
49341;BME280;35209;51.050;13.678;2024-03-23T02:45:46;150828.34;;;8.57;100.00
49341;BME280;35209;51.050;13.678;2024-03-23T02:50:47;150830.91;;;8.58;100.00
49341;BME280;35209;51.050;13.678;2024-03-23T02:55:48;150843.84;;;8.64;100.00
49341;BME280;35209;51.050;13.678;2024-03-23T03:00:48;150845.13;;;8.64;100.00
49341;BME280;35209;51.050;13.678;2024-03-23T03:05:55;150859.28;;;8.70;100.00
49341;BME280;35209;51.050;13.678;2024-03-23T03:10:56;150878.66;;;8.77;100.00
49341;BME280;35209;51.050;13.678;2024-03-23T03:15:57;150836.09;;;8.61;100.00
49341;BME280;35209;51.050;13.678;2024-03-23T03:20:59;150828.34;;;8.57;100.00
49341;BME280;35209;51.050;13.678;2024-03-23T03:26:00;150930.19;;;8.98;100.00
49341;BME280;35209;51.050;13.678;2024-03-23T03:31:01;150903.13;;;8.87;100.00
49341;BME280;35209;51.050;13.678;2024-03-23T03:36:02;150873.47;;;8.75;100.00
49341;BME280;35209;51.050;13.678;2024-03-23T03:41:03;150845.13;;;8.64;100.00
49341;BME280;35209;51.050;13.678;2024-03-23T03:46:04;150921.22;;;8.94;100.00
49341;BME280;35209;51.050;13.678;2024-03-23T03:51:05;150921.22;;;8.94;100.00
49341;BME280;35209;51.050;13.678;2024-03-23T03:56:06;150872.19;;;8.75;100.00
49341;BME280;35209;51.050;13.678;2024-03-23T04:01:07;150894.09;;;8.83;100.00
49341;BME280;35209;51.050;13.678;2024-03-23T04:06:08;150868.34;;;8.73;100.00
49341;BME280;35209;51.050;13.678;2024-03-23T04:11:08;150860.59;;;8.70;100.00
49341;BME280;35209;51.050;13.678;2024-03-23T04:16:09;150847.69;;;8.65;100.00
49341;BME280;35209;51.050;13.678;2024-03-23T04:21:10;150863.16;;;8.71;100.00
49341;BME280;35209;51.050;13.678;2024-03-23T04:26:11;150829.63;;;8.58;100.00
49341;BME280;35209;51.050;13.678;2024-03-23T04:31:12;150807.72;;;8.49;100.00
49341;BME280;35209;51.050;13.678;2024-03-23T04:36:13;150810.31;;;8.50;100.00
49341;BME280;35209;51.050;13.678;2024-03-23T04:41:14;150780.66;;;8.39;100.00
49341;BME280;35209;51.050;13.678;2024-03-23T04:46:15;150738.06;;;8.22;100.00
49341;BME280;35209;51.050;13.678;2024-03-23T04:51:25;150776.81;;;8.37;100.00
49341;BME280;35209;51.050;13.678;2024-03-23T04:56:26;150750.94;;;8.27;100.00
49341;BME280;35209;51.050;13.678;2024-03-23T05:01:27;150753.56;;;8.28;100.00
49341;BME280;35209;51.050;13.678;2024-03-23T05:06:28;150756.13;;;8.29;100.00
49341;BME280;35209;51.050;13.678;2024-03-23T05:11:29;150748.38;;;8.26;100.00
49341;BME280;35209;51.050;13.678;2024-03-23T05:16:30;150740.63;;;8.23;100.00
49341;BME280;35209;51.050;13.678;2024-03-23T05:21:31;150716.16;;;8.13;100.00
49341;BME280;35209;51.050;13.678;2024-03-23T05:26:32;150730.31;;;8.19;100.00
49341;BME280;35209;51.050;13.678;2024-03-23T05:31:34;150876.03;;;8.76;100.00
49341;BME280;35209;51.050;13.678;2024-03-23T05:36:35;150856.72;;;8.69;100.00
49341;BME280;35209;51.050;13.678;2024-03-23T05:41:36;150901.84;;;8.87;100.00
49341;BME280;35209;51.050;13.678;2024-03-23T05:46:37;150936.66;;;9.00;100.00
49341;BME280;35209;51.050;13.678;2024-03-23T05:51:38;150891.53;;;8.82;100.00
49341;BME280;35209;51.050;13.678;2024-03-23T05:56:39;150856.72;;;8.69;100.00
49341;BME280;35209;51.050;13.678;2024-03-23T06:01:40;150797.38;;;8.45;100.00
49341;BME280;35209;51.050;13.678;2024-03-23T06:06:41;150789.69;;;8.42;100.00
49341;BME280;35209;51.050;13.678;2024-03-23T06:11:41;150855.44;;;8.68;100.00
49341;BME280;35209;51.050;13.678;2024-03-23T06:16:42;150863.16;;;8.71;100.00
49341;BME280;35209;51.050;13.678;2024-03-23T06:21:44;150944.44;;;9.03;100.00
49341;BME280;35209;51.050;13.678;2024-03-23T06:26:44;150954.75;;;9.07;100.00
49341;BME280;35209;51.050;13.678;2024-03-23T06:31:53;150834.81;;;8.60;100.00
49341;BME280;35209;51.050;13.678;2024-03-23T06:36:54;150890.25;;;8.82;100.00
49341;BME280;35209;51.050;13.678;2024-03-23T06:41:54;150897.97;;;8.85;100.00
49341;BME280;35209;51.050;13.678;2024-03-23T06:46:56;150936.66;;;9.00;100.00
49341;BME280;35209;51.050;13.678;2024-03-23T06:51:57;150885.06;;;8.80;100.00
49341;BME280;35209;51.050;13.678;2024-03-23T06:56:58;150824.50;;;8.56;100.00
49341;BME280;35209;51.050;13.678;2024-03-23T07:01:59;150886.34;;;8.80;100.00
49341;BME280;35209;51.050;13.678;2024-03-23T07:06:59;150797.38;;;8.45;100.00
49341;BME280;35209;51.050;13.678;2024-03-23T07:12:02;150772.88;;;8.35;100.00
49341;BME280;35209;51.050;13.678;2024-03-23T07:17:02;150744.53;;;8.24;100.00
49341;BME280;35209;51.050;13.678;2024-03-23T07:22:03;150709.75;;;8.11;100.00
49341;BME280;35209;51.050;13.678;2024-03-23T07:27:05;150716.16;;;8.13;100.00
49341;BME280;35209;51.050;13.678;2024-03-23T07:32:06;150734.22;;;8.20;100.00
49341;BME280;35209;51.050;13.678;2024-03-23T07:37:07;150815.47;;;8.52;100.00
49341;BME280;35209;51.050;13.678;2024-03-23T07:42:07;150838.66;;;8.62;100.00
49341;BME280;35209;51.050;13.678;2024-03-23T07:47:08;150867.06;;;8.73;100.00
49341;BME280;35209;51.050;13.678;2024-03-23T07:52:09;150858.00;;;8.69;100.00
49341;BME280;35209;51.050;13.678;2024-03-23T07:57:10;150897.97;;;8.85;100.00
49341;BME280;35209;51.050;13.678;2024-03-23T08:02:10;150926.34;;;8.96;100.00
49341;BME280;35209;51.050;13.678;2024-03-23T08:07:12;150894.09;;;8.83;100.00
49341;BME280;35209;51.050;13.678;2024-03-23T08:12:12;150949.56;;;9.05;100.00
49341;BME280;35209;51.050;13.678;2024-03-23T08:17:13;150900.56;;;8.86;100.00
49341;BME280;35209;51.050;13.678;2024-03-23T08:22:14;150961.16;;;9.10;100.00
49341;BME280;35209;51.050;13.678;2024-03-23T08:27:15;151042.41;;;9.42;100.00
49341;BME280;35209;51.050;13.678;2024-03-23T08:32:16;151036.00;;;9.40;100.00
49341;BME280;35209;51.050;13.678;2024-03-23T08:37:17;151003.75;;;9.27;100.00
49341;BME280;35209;51.050;13.678;2024-03-23T08:42:18;151011.50;;;9.30;100.00
49341;BME280;35209;51.050;13.678;2024-03-23T08:47:19;151055.31;;;9.47;100.00
49341;BME280;35209;51.050;13.678;2024-03-23T08:52:20;151079.84;;;9.57;100.00
49341;BME280;35209;51.050;13.678;2024-03-23T08:57:20;151152.09;;;9.85;100.00
49341;BME280;35209;51.050;13.678;2024-03-23T09:02:22;151141.78;;;9.81;100.00
49341;BME280;35209;51.050;13.678;2024-03-23T09:07:22;151199.84;;;10.04;100.00
49341;BME280;35209;51.050;13.678;2024-03-23T09:12:24;151322.53;;;10.53;100.00
49341;BME280;35209;51.050;13.678;2024-03-23T09:17:25;151350.94;;;10.64;100.00
49341;BME280;35209;51.050;13.678;2024-03-23T09:22:25;151613.16;;;11.68;100.00
49341;BME280;35209;51.050;13.678;2024-03-23T09:27:26;151648.03;;;11.81;98.50
49341;BME280;35209;51.050;13.678;2024-03-23T09:32:27;151667.47;;;11.89;99.39
49341;BME280;35209;51.050;13.678;2024-03-23T09:37:28;151629.97;;;11.74;100.00
49341;BME280;35209;51.050;13.678;2024-03-23T09:42:29;151445.19;;;11.01;100.00
49341;BME280;35209;51.050;13.678;2024-03-23T09:47:30;151282.53;;;10.37;100.00
49341;BME280;35209;51.050;13.678;2024-03-23T09:52:31;151135.34;;;9.79;100.00
49341;BME280;35209;51.050;13.678;2024-03-23T09:57:32;150867.06;;;8.73;100.00
49341;BME280;35209;51.050;13.678;2024-03-23T10:02:36;150665.91;;;7.93;100.00
49341;BME280;35209;51.050;13.678;2024-03-23T10:07:37;150516.44;;;7.34;100.00
49341;BME280;35209;51.050;13.678;2024-03-23T10:12:46;150398.03;;;6.87;100.00
49341;BME280;35209;51.050;13.678;2024-03-23T10:17:48;150239.72;;;6.24;100.00
49341;BME280;35209;51.050;13.678;2024-03-23T10:22:50;150120.00;;;5.77;100.00
49341;BME280;35209;51.050;13.678;2024-03-23T10:28:00;150103.25;;;5.70;100.00
49341;BME280;35209;51.050;13.678;2024-03-23T10:33:11;150130.28;;;5.81;100.00
49341;BME280;35209;51.050;13.678;2024-03-23T10:38:12;150065.97;;;5.55;100.00
49341;BME280;35209;51.050;13.678;2024-03-23T10:43:13;150015.78;;;5.36;100.00
49341;BME280;35209;51.050;13.678;2024-03-23T10:48:15;149988.81;;;5.25;100.00
49341;BME280;35209;51.050;13.678;2024-03-23T10:53:15;149942.53;;;5.06;100.00
49341;BME280;35209;51.050;13.678;2024-03-23T10:58:43;149956.66;;;5.12;100.00
49341;BME280;35209;51.050;13.678;2024-03-23T11:03:45;150046.66;;;5.48;100.00
49341;BME280;35209;51.050;13.678;2024-03-23T11:08:46;150054.38;;;5.51;100.00
49341;BME280;35209;51.050;13.678;2024-03-23T11:13:52;149936.06;;;5.04;100.00
49341;BME280;35209;51.050;13.678;2024-03-23T11:18:53;149932.25;;;5.02;100.00
49341;BME280;35209;51.050;13.678;2024-03-23T11:23:55;150067.25;;;5.56;100.00
49341;BME280;35209;51.050;13.678;2024-03-23T11:29:09;150112.25;;;5.74;100.00
49341;BME280;35209;51.050;13.678;2024-03-23T11:34:10;150032.53;;;5.42;100.00
49341;BME280;35209;51.050;13.678;2024-03-23T11:39:12;149993.97;;;5.27;100.00
49341;BME280;35209;51.050;13.678;2024-03-23T11:44:21;149988.81;;;5.25;100.00
49341;BME280;35209;51.050;13.678;2024-03-23T11:49:26;150073.69;;;5.59;100.00
49341;BME280;35209;51.050;13.678;2024-03-23T11:54:27;150216.50;;;6.15;100.00
49341;BME280;35209;51.050;13.678;2024-03-23T11:59:39;150341.38;;;6.65;100.00
49341;BME280;35209;51.050;13.678;2024-03-23T12:04:43;150319.50;;;6.56;100.00
49341;BME280;35209;51.050;13.678;2024-03-23T12:09:44;150683.94;;;8.00;100.00
49341;BME280;35209;51.050;13.678;2024-03-23T12:15:06;151131.44;;;9.77;100.00
49341;BME280;35209;51.050;13.678;2024-03-23T12:20:09;151170.19;;;9.93;97.65
49341;BME280;35209;51.050;13.678;2024-03-23T12:25:10;150681.38;;;7.99;91.89
49341;BME280;35209;51.050;13.678;2024-03-23T12:30:11;150431.50;;;7.00;95.76
49341;BME280;35209;51.050;13.678;2024-03-23T12:35:12;150400.59;;;6.88;99.30
49341;BME280;35209;51.050;13.678;2024-03-23T12:40:13;150351.69;;;6.69;97.83
49341;BME280;35209;51.050;13.678;2024-03-23T12:45:14;150295.03;;;6.46;99.62
49341;BME280;35209;51.050;13.678;2024-03-23T12:50:15;150280.84;;;6.41;100.00
49341;BME280;35209;51.050;13.678;2024-03-23T12:55:16;150292.44;;;6.45;100.00
49341;BME280;35209;51.050;13.678;2024-03-23T13:00:17;150229.41;;;6.20;97.16
49341;BME280;35209;51.050;13.678;2024-03-23T13:05:17;150166.34;;;5.95;100.00
49341;BME280;35209;51.050;13.678;2024-03-23T13:10:18;150150.88;;;5.89;100.00
49341;BME280;35209;51.050;13.678;2024-03-23T13:15:19;150161.22;;;5.93;99.09
49341;BME280;35209;51.050;13.678;2024-03-23T13:20:21;150207.53;;;6.12;98.20
49341;BME280;35209;51.050;13.678;2024-03-23T13:25:21;150274.44;;;6.38;97.35
49341;BME280;35209;51.050;13.678;2024-03-23T13:30:22;150327.19;;;6.59;94.98
49341;BME280;35209;51.050;13.678;2024-03-23T13:35:23;150273.16;;;6.38;94.22
49341;BME280;35209;51.050;13.678;2024-03-23T13:40:24;150292.44;;;6.45;92.49
49341;BME280;35209;51.050;13.678;2024-03-23T13:45:24;150361.94;;;6.73;90.26
49341;BME280;35209;51.050;13.678;2024-03-23T13:50:25;150383.81;;;6.81;90.71
49341;BME280;35209;51.050;13.678;2024-03-23T13:55:26;150468.81;;;7.15;89.43
49341;BME280;35209;51.050;13.678;2024-03-23T14:00:27;150592.47;;;7.64;87.80
49341;BME280;35209;51.050;13.678;2024-03-23T14:05:28;150575.75;;;7.57;83.44
49341;BME280;35209;51.050;13.678;2024-03-23T14:10:28;150534.50;;;7.41;83.48
49341;BME280;35209;51.050;13.678;2024-03-23T14:15:29;150552.56;;;7.48;84.18
49341;BME280;35209;51.050;13.678;2024-03-23T14:20:33;150578.31;;;7.58;79.51
49341;BME280;35209;51.050;13.678;2024-03-23T14:25:34;150619.53;;;7.75;76.11
49341;BME280;35209;51.050;13.678;2024-03-23T14:30:35;150633.72;;;7.80;75.65
49341;BME280;35209;51.050;13.678;2024-03-23T14:35:36;150691.69;;;8.03;73.68
49341;BME280;35209;51.050;13.678;2024-03-23T14:40:37;150671.06;;;7.95;70.60
49341;BME280;35209;51.050;13.678;2024-03-23T14:45:37;150616.94;;;7.74;73.31
49341;BME280;35209;51.050;13.678;2024-03-23T14:50:46;150619.53;;;7.75;73.10
49341;BME280;35209;51.050;13.678;2024-03-23T14:55:47;150659.47;;;7.91;72.21
49341;BME280;35209;51.050;13.678;2024-03-23T15:00:50;150616.94;;;7.74;76.22
49341;BME280;35209;51.050;13.678;2024-03-23T15:05:53;150625.97;;;7.77;75.23
49341;BME280;35209;51.050;13.678;2024-03-23T15:10:54;150655.59;;;7.89;72.44
49341;BME280;35209;51.050;13.678;2024-03-23T15:15:55;150613.09;;;7.72;75.56
49341;BME280;35209;51.050;13.678;2024-03-23T15:20:58;150623.41;;;7.76;76.07
49341;BME280;35209;51.050;13.678;2024-03-23T15:26:12;150680.09;;;7.99;76.01
49341;BME280;35209;51.050;13.678;2024-03-23T15:31:13;150672.34;;;7.96;76.29
49341;BME280;35209;51.050;13.678;2024-03-23T15:36:14;150689.13;;;8.02;76.51
49341;BME280;35209;51.050;13.678;2024-03-23T15:41:15;150702.00;;;8.07;73.72
49341;BME280;35209;51.050;13.678;2024-03-23T15:46:15;150708.41;;;8.10;73.47
49341;BME280;35209;51.050;13.678;2024-03-23T15:51:16;150687.84;;;8.02;75.62
49341;BME280;35209;51.050;13.678;2024-03-23T15:56:18;150650.44;;;7.87;78.17
49341;BME280;35209;51.050;13.678;2024-03-23T16:01:19;150663.31;;;7.92;77.99
49341;BME280;35209;51.050;13.678;2024-03-23T16:06:21;150629.81;;;7.79;76.75
49341;BME280;35209;51.050;13.678;2024-03-23T16:11:21;150638.84;;;7.82;77.66
49341;BME280;35209;51.050;13.678;2024-03-23T16:16:22;150593.75;;;7.65;78.37
49341;BME280;35209;51.050;13.678;2024-03-23T16:21:24;150403.16;;;6.89;83.50
49341;BME280;35209;51.050;13.678;2024-03-23T16:26:25;150268.00;;;6.36;89.18
49341;BME280;35209;51.050;13.678;2024-03-23T16:31:26;150261.59;;;6.33;92.07
49341;BME280;35209;51.050;13.678;2024-03-23T16:36:26;150230.69;;;6.21;94.89
49341;BME280;35209;51.050;13.678;2024-03-23T16:41:27;150172.78;;;5.98;93.40
49341;BME280;35209;51.050;13.678;2024-03-23T16:46:28;150199.81;;;6.09;92.04
49341;BME280;35209;51.050;13.678;2024-03-23T16:51:29;150103.25;;;5.70;96.91
49341;BME280;35209;51.050;13.678;2024-03-23T16:56:30;150135.41;;;5.83;94.89
49341;BME280;35209;51.050;13.678;2024-03-23T17:01:31;150162.50;;;5.94;94.29
49341;BME280;35209;51.050;13.678;2024-03-23T17:06:32;150168.91;;;5.96;93.86
49341;BME280;35209;51.050;13.678;2024-03-23T17:11:33;150167.63;;;5.96;94.56
49341;BME280;35209;51.050;13.678;2024-03-23T17:16:33;150136.69;;;5.83;94.82
49341;BME280;35209;51.050;13.678;2024-03-23T17:21:35;150158.63;;;5.92;95.76
49341;BME280;35209;51.050;13.678;2024-03-23T17:26:40;150172.78;;;5.98;95.21
49341;BME280;35209;51.050;13.678;2024-03-23T17:31:42;150179.22;;;6.00;93.67
49341;BME280;35209;51.050;13.678;2024-03-23T17:36:42;150171.47;;;5.97;91.87
49341;BME280;35209;51.050;13.678;2024-03-23T17:41:44;150123.84;;;5.78;92.95
49341;BME280;35209;51.050;13.678;2024-03-23T17:46:45;150110.97;;;5.73;93.54
49341;BME280;35209;51.050;13.678;2024-03-23T17:51:46;150062.13;;;5.54;93.55
49341;BME280;35209;51.050;13.678;2024-03-23T17:56:46;150040.25;;;5.45;94.30
49341;BME280;35209;51.050;13.678;2024-03-23T18:01:47;149999.09;;;5.29;95.31
49341;BME280;35209;51.050;13.678;2024-03-23T18:06:49;149987.53;;;5.24;95.39
49341;BME280;35209;51.050;13.678;2024-03-23T18:11:51;149950.25;;;5.10;96.50
49341;BME280;35209;51.050;13.678;2024-03-23T18:16:53;149941.25;;;5.06;97.39
49341;BME280;35209;51.050;13.678;2024-03-23T18:21:54;149948.97;;;5.09;95.60
49341;BME280;35209;51.050;13.678;2024-03-23T18:26:54;149925.78;;;5.00;95.78
49341;BME280;35209;51.050;13.678;2024-03-23T18:31:58;149911.66;;;4.94;95.82
49341;BME280;35209;51.050;13.678;2024-03-23T18:36:59;149903.94;;;4.91;95.52
49341;BME280;35209;51.050;13.678;2024-03-23T18:42:00;149906.53;;;4.92;93.74
49341;BME280;35209;51.050;13.678;2024-03-23T18:47:01;149914.22;;;4.95;93.18
49341;BME280;35209;51.050;13.678;2024-03-23T18:52:01;149883.41;;;4.83;97.02
49341;BME280;35209;51.050;13.678;2024-03-23T18:57:03;149977.22;;;5.20;90.79
49341;BME280;35209;51.050;13.678;2024-03-23T19:02:04;150374.84;;;6.78;87.64
49341;BME280;35209;51.050;13.678;2024-03-23T19:07:05;150525.47;;;7.38;89.04
49341;BME280;35209;51.050;13.678;2024-03-23T19:12:06;150419.91;;;6.96;82.63
49341;BME280;35209;51.050;13.678;2024-03-23T19:17:07;150623.41;;;7.76;76.45
49341;BME280;35209;51.050;13.678;2024-03-23T19:22:08;150463.69;;;7.13;78.53
49341;BME280;35209;51.050;13.678;2024-03-23T19:27:09;150242.28;;;6.25;81.15
49341;BME280;35209;51.050;13.678;2024-03-23T19:32:10;150095.56;;;5.67;83.82
49341;BME280;35209;51.050;13.678;2024-03-23T19:37:11;150010.66;;;5.34;86.58
49341;BME280;35209;51.050;13.678;2024-03-23T19:42:12;149978.50;;;5.21;87.84
49341;BME280;35209;51.050;13.678;2024-03-23T19:47:15;149921.94;;;4.98;90.20
49341;BME280;35209;51.050;13.678;2024-03-23T19:52:16;149896.25;;;4.88;91.40
49341;BME280;35209;51.050;13.678;2024-03-23T19:57:17;149862.84;;;4.75;93.72
49341;BME280;35209;51.050;13.678;2024-03-23T20:02:18;149833.25;;;4.63;94.48
49341;BME280;35209;51.050;13.678;2024-03-23T20:07:20;149873.13;;;4.79;93.06
49341;BME280;35209;51.050;13.678;2024-03-23T20:12:20;149856.38;;;4.72;93.85
49341;BME280;35209;51.050;13.678;2024-03-23T20:17:21;149801.13;;;4.50;95.58
49341;BME280;35209;51.050;13.678;2024-03-23T20:22:23;149817.84;;;4.57;94.60
49341;BME280;35209;51.050;13.678;2024-03-23T20:27:25;149772.88;;;4.39;95.24
49341;BME280;35209;51.050;13.678;2024-03-23T20:32:28;149792.13;;;4.47;94.66
49341;BME280;35209;51.050;13.678;2024-03-23T20:37:28;149761.31;;;4.35;95.64
49341;BME280;35209;51.050;13.678;2024-03-23T20:42:29;149766.44;;;4.37;94.41
49341;BME280;35209;51.050;13.678;2024-03-23T20:47:31;149730.47;;;4.22;95.28
49341;BME280;35209;51.050;13.678;2024-03-23T20:52:32;149739.47;;;4.26;94.47
49341;BME280;35209;51.050;13.678;2024-03-23T20:57:35;149765.16;;;4.36;93.10
49341;BME280;35209;51.050;13.678;2024-03-23T21:02:36;149729.19;;;4.22;93.62
49341;BME280;35209;51.050;13.678;2024-03-23T21:07:36;149727.91;;;4.21;93.28
49341;BME280;35209;51.050;13.678;2024-03-23T21:12:37;149697.06;;;4.09;93.38
49341;BME280;35209;51.050;13.678;2024-03-23T21:17:38;149711.19;;;4.15;92.92
49341;BME280;35209;51.050;13.678;2024-03-23T21:22:39;149694.50;;;4.08;93.34
49341;BME280;35209;51.050;13.678;2024-03-23T21:27:40;149672.69;;;3.99;93.71
49341;BME280;35209;51.050;13.678;2024-03-23T21:32:41;149670.06;;;3.98;92.59
49341;BME280;35209;51.050;13.678;2024-03-23T21:37:42;149653.41;;;3.92;92.31
49341;BME280;35209;51.050;13.678;2024-03-23T21:42:43;149645.69;;;3.89;93.03
49341;BME280;35209;51.050;13.678;2024-03-23T21:47:44;149646.97;;;3.89;90.40
49341;BME280;35209;51.050;13.678;2024-03-23T21:52:45;149658.50;;;3.94;89.37
49341;BME280;35209;51.050;13.678;2024-03-23T21:57:47;149708.63;;;4.14;86.79
49341;BME280;35209;51.050;13.678;2024-03-23T22:02:50;149720.19;;;4.18;85.96
49341;BME280;35209;51.050;13.678;2024-03-23T22:07:51;149685.50;;;4.04;87.31
49341;BME280;35209;51.050;13.678;2024-03-23T22:12:51;149703.47;;;4.12;86.38
49341;BME280;35209;51.050;13.678;2024-03-23T22:17:52;149679.06;;;4.02;86.70
49341;BME280;35209;51.050;13.678;2024-03-23T22:22:53;149639.28;;;3.86;87.71
49341;BME280;35209;51.050;13.678;2024-03-23T22:27:54;149631.56;;;3.83;87.87
49341;BME280;35209;51.050;13.678;2024-03-23T22:32:58;149613.56;;;3.76;88.12
49341;BME280;35209;51.050;13.678;2024-03-23T22:37:59;149585.34;;;3.65;89.39
49341;BME280;35209;51.050;13.678;2024-03-23T22:43:03;149594.34;;;3.68;89.26
49341;BME280;35209;51.050;13.678;2024-03-23T22:48:04;149591.72;;;3.67;89.21
49341;BME280;35209;51.050;13.678;2024-03-23T22:53:05;149596.91;;;3.69;89.01
49341;BME280;35209;51.050;13.678;2024-03-23T22:58:05;149591.72;;;3.67;89.53
49341;BME280;35209;51.050;13.678;2024-03-23T23:03:08;149603.34;;;3.72;88.72
49341;BME280;35209;51.050;13.678;2024-03-23T23:08:09;149593.06;;;3.68;89.65
49341;BME280;35209;51.050;13.678;2024-03-23T23:13:10;149595.63;;;3.69;88.87
49341;BME280;35209;51.050;13.678;2024-03-23T23:18:11;149585.34;;;3.65;89.28
49341;BME280;35209;51.050;13.678;2024-03-23T23:23:14;149551.94;;;3.51;89.44
49341;BME280;35209;51.050;13.678;2024-03-23T23:28:14;149566.06;;;3.57;88.77
49341;BME280;35209;51.050;13.678;2024-03-23T23:33:15;149548.13;;;3.50;89.48
49341;BME280;35209;51.050;13.678;2024-03-23T23:38:16;149564.78;;;3.57;88.61
49341;BME280;35209;51.050;13.678;2024-03-23T23:43:17;149527.56;;;3.42;89.48
49341;BME280;35209;51.050;13.678;2024-03-23T23:48:18;149518.56;;;3.38;89.89
49341;BME280;35209;51.050;13.678;2024-03-23T23:53:19;149518.56;;;3.38;89.89
49341;BME280;35209;51.050;13.678;2024-03-23T23:58:20;149518.56;;;3.38;89.78
